sensor_id;sensor_type;location;lat;lon;timestamp;P1;durP1;ratioP1;P2;durP2;ratioP2
28304;SDS011;15569;42.652;23.040;2023-07-02T00:01:07;11.00;;;3.60;;
28304;SDS011;15569;42.652;23.040;2023-07-02T00:03:32;8.13;;;4.57;;
28304;SDS011;15569;42.652;23.040;2023-07-02T00:05:58;7.70;;;3.90;;
28304;SDS011;15569;42.652;23.040;2023-07-02T00:08:23;14.52;;;5.10;;
28304;SDS011;15569;42.652;23.040;2023-07-02T00:10:48;15.32;;;4.65;;
28304;SDS011;15569;42.652;23.040;2023-07-02T00:13:14;9.75;;;4.22;;
28304;SDS011;15569;42.652;23.040;2023-07-02T00:15:40;11.52;;;3.88;;
28304;SDS011;15569;42.652;23.040;2023-07-02T00:18:06;8.95;;;3.95;;
28304;SDS011;15569;42.652;23.040;2023-07-02T00:20:32;11.00;;;5.20;;
28304;SDS011;15569;42.652;23.040;2023-07-02T00:23:02;10.90;;;4.45;;
28304;SDS011;15569;42.652;23.040;2023-07-02T00:25:28;14.10;;;4.07;;
28304;SDS011;15569;42.652;23.040;2023-07-02T00:27:54;9.48;;;3.90;;
28304;SDS011;15569;42.652;23.040;2023-07-02T00:30:19;12.10;;;4.38;;
28304;SDS011;15569;42.652;23.040;2023-07-02T00:32:44;11.02;;;4.30;;
28304;SDS011;15569;42.652;23.040;2023-07-02T00:35:10;9.75;;;3.80;;
28304;SDS011;15569;42.652;23.040;2023-07-02T00:37:35;8.07;;;3.92;;
28304;SDS011;15569;42.652;23.040;2023-07-02T00:40:01;8.40;;;3.95;;
28304;SDS011;15569;42.652;23.040;2023-07-02T00:42:27;8.88;;;3.78;;
28304;SDS011;15569;42.652;23.040;2023-07-02T00:44:55;7.20;;;3.55;;
28304;SDS011;15569;42.652;23.040;2023-07-02T00:47:22;15.93;;;4.05;;
28304;SDS011;15569;42.652;23.040;2023-07-02T00:49:48;7.78;;;3.58;;
28304;SDS011;15569;42.652;23.040;2023-07-02T00:52:14;9.13;;;4.03;;
28304;SDS011;15569;42.652;23.040;2023-07-02T00:54:40;7.18;;;3.67;;
28304;SDS011;15569;42.652;23.040;2023-07-02T00:57:06;15.35;;;4.22;;
28304;SDS011;15569;42.652;23.040;2023-07-02T00:59:31;7.65;;;3.58;;
28304;SDS011;15569;42.652;23.040;2023-07-02T01:02:00;10.70;;;3.92;;
28304;SDS011;15569;42.652;23.040;2023-07-02T01:04:26;13.20;;;4.72;;
28304;SDS011;15569;42.652;23.040;2023-07-02T01:06:52;13.25;;;5.35;;
28304;SDS011;15569;42.652;23.040;2023-07-02T01:09:22;9.20;;;4.30;;
28304;SDS011;15569;42.652;23.040;2023-07-02T01:11:55;8.43;;;4.18;;
28304;SDS011;15569;42.652;23.040;2023-07-02T01:16:58;9.13;;;4.32;;
28304;SDS011;15569;42.652;23.040;2023-07-02T01:22:30;9.35;;;4.30;;
28304;SDS011;15569;42.652;23.040;2023-07-02T01:24:57;8.93;;;4.70;;
28304;SDS011;15569;42.652;23.040;2023-07-02T01:27:22;12.60;;;5.22;;
28304;SDS011;15569;42.652;23.040;2023-07-02T01:29:51;10.70;;;4.30;;
28304;SDS011;15569;42.652;23.040;2023-07-02T01:32:17;16.48;;;5.88;;
28304;SDS011;15569;42.652;23.040;2023-07-02T01:34:42;13.38;;;5.47;;
28304;SDS011;15569;42.652;23.040;2023-07-02T01:37:13;12.95;;;5.45;;
28304;SDS011;15569;42.652;23.040;2023-07-02T01:39:39;14.00;;;5.60;;
28304;SDS011;15569;42.652;23.040;2023-07-02T01:42:09;13.90;;;5.43;;
28304;SDS011;15569;42.652;23.040;2023-07-02T01:44:36;16.42;;;6.10;;
28304;SDS011;15569;42.652;23.040;2023-07-02T01:47:02;18.63;;;5.25;;
28304;SDS011;15569;42.652;23.040;2023-07-02T01:49:28;13.48;;;6.07;;
28304;SDS011;15569;42.652;23.040;2023-07-02T01:51:54;13.18;;;6.50;;
28304;SDS011;15569;42.652;23.040;2023-07-02T01:54:21;15.10;;;6.63;;
28304;SDS011;15569;42.652;23.040;2023-07-02T01:56:47;17.95;;;5.80;;
28304;SDS011;15569;42.652;23.040;2023-07-02T01:59:13;13.15;;;6.18;;
28304;SDS011;15569;42.652;23.040;2023-07-02T02:01:39;16.35;;;6.60;;
28304;SDS011;15569;42.652;23.040;2023-07-02T02:04:08;12.40;;;4.68;;
28304;SDS011;15569;42.652;23.040;2023-07-02T02:06:35;17.98;;;6.03;;
28304;SDS011;15569;42.652;23.040;2023-07-02T02:09:01;13.48;;;5.22;;
28304;SDS011;15569;42.652;23.040;2023-07-02T02:11:30;18.97;;;5.57;;
28304;SDS011;15569;42.652;23.040;2023-07-02T02:13:57;19.27;;;5.63;;
28304;SDS011;15569;42.652;23.040;2023-07-02T02:16:23;16.17;;;5.68;;
28304;SDS011;15569;42.652;23.040;2023-07-02T02:18:49;21.50;;;6.75;;
28304;SDS011;15569;42.652;23.040;2023-07-02T02:21:17;17.33;;;5.88;;
28304;SDS011;15569;42.652;23.040;2023-07-02T02:23:42;12.88;;;6.07;;
28304;SDS011;15569;42.652;23.040;2023-07-02T02:26:08;17.42;;;6.57;;
28304;SDS011;15569;42.652;23.040;2023-07-02T02:28:33;21.35;;;7.20;;
28304;SDS011;15569;42.652;23.040;2023-07-02T02:30:59;22.90;;;6.82;;
28304;SDS011;15569;42.652;23.040;2023-07-02T02:33:24;20.90;;;6.35;;
28304;SDS011;15569;42.652;23.040;2023-07-02T02:35:50;16.40;;;6.70;;
28304;SDS011;15569;42.652;23.040;2023-07-02T02:38:15;16.60;;;4.90;;
28304;SDS011;15569;42.652;23.040;2023-07-02T02:40:41;12.20;;;5.13;;
28304;SDS011;15569;42.652;23.040;2023-07-02T02:43:06;14.38;;;5.00;;
28304;SDS011;15569;42.652;23.040;2023-07-02T02:45:32;19.75;;;5.13;;
28304;SDS011;15569;42.652;23.040;2023-07-02T02:47:57;21.35;;;5.75;;
28304;SDS011;15569;42.652;23.040;2023-07-02T02:50:22;15.70;;;5.05;;
28304;SDS011;15569;42.652;23.040;2023-07-02T02:52:48;22.52;;;5.80;;
28304;SDS011;15569;42.652;23.040;2023-07-02T02:55:13;21.70;;;6.18;;
28304;SDS011;15569;42.652;23.040;2023-07-02T02:57:39;16.40;;;4.95;;
28304;SDS011;15569;42.652;23.040;2023-07-02T03:00:04;16.92;;;4.95;;
28304;SDS011;15569;42.652;23.040;2023-07-02T03:02:31;12.02;;;5.00;;
28304;SDS011;15569;42.652;23.040;2023-07-02T03:04:56;14.60;;;4.53;;
28304;SDS011;15569;42.652;23.040;2023-07-02T03:07:27;9.75;;;4.28;;
28304;SDS011;15569;42.652;23.040;2023-07-02T03:09:52;8.13;;;3.67;;
28304;SDS011;15569;42.652;23.040;2023-07-02T03:12:18;6.88;;;3.75;;
28304;SDS011;15569;42.652;23.040;2023-07-02T03:14:43;9.73;;;4.95;;
28304;SDS011;15569;42.652;23.040;2023-07-02T03:17:08;8.45;;;4.22;;
28304;SDS011;15569;42.652;23.040;2023-07-02T03:19:34;10.52;;;3.85;;
28304;SDS011;15569;42.652;23.040;2023-07-02T03:21:59;7.10;;;3.28;;
28304;SDS011;15569;42.652;23.040;2023-07-02T03:24:24;9.05;;;3.92;;
28304;SDS011;15569;42.652;23.040;2023-07-02T03:26:50;9.13;;;3.90;;
28304;SDS011;15569;42.652;23.040;2023-07-02T03:29:15;9.70;;;4.15;;
28304;SDS011;15569;42.652;23.040;2023-07-02T03:31:41;7.80;;;4.18;;
28304;SDS011;15569;42.652;23.040;2023-07-02T03:34:07;11.88;;;4.70;;
28304;SDS011;15569;42.652;23.040;2023-07-02T03:36:34;9.35;;;4.38;;
28304;SDS011;15569;42.652;23.040;2023-07-02T03:39:00;9.20;;;4.25;;
28304;SDS011;15569;42.652;23.040;2023-07-02T03:41:25;13.88;;;3.78;;
28304;SDS011;15569;42.652;23.040;2023-07-02T03:43:51;13.30;;;4.75;;
28304;SDS011;15569;42.652;23.040;2023-07-02T03:46:16;7.70;;;4.13;;
28304;SDS011;15569;42.652;23.040;2023-07-02T03:48:41;12.52;;;4.50;;
28304;SDS011;15569;42.652;23.040;2023-07-02T03:51:07;8.10;;;4.68;;
28304;SDS011;15569;42.652;23.040;2023-07-02T03:53:32;9.40;;;3.75;;
28304;SDS011;15569;42.652;23.040;2023-07-02T03:55:58;6.70;;;3.53;;
28304;SDS011;15569;42.652;23.040;2023-07-02T03:58:23;4.75;;;2.60;;
28304;SDS011;15569;42.652;23.040;2023-07-02T04:00:49;8.73;;;3.95;;
28304;SDS011;15569;42.652;23.040;2023-07-02T04:03:15;5.70;;;3.38;;
28304;SDS011;15569;42.652;23.040;2023-07-02T04:05:41;5.50;;;2.95;;
28304;SDS011;15569;42.652;23.040;2023-07-02T04:08:07;8.25;;;3.97;;
28304;SDS011;15569;42.652;23.040;2023-07-02T04:10:32;5.93;;;3.15;;
28304;SDS011;15569;42.652;23.040;2023-07-02T04:12:58;8.07;;;3.10;;
28304;SDS011;15569;42.652;23.040;2023-07-02T04:15:23;5.65;;;2.97;;
28304;SDS011;15569;42.652;23.040;2023-07-02T04:17:50;6.35;;;3.55;;
28304;SDS011;15569;42.652;23.040;2023-07-02T04:20:16;6.80;;;4.13;;
28304;SDS011;15569;42.652;23.040;2023-07-02T04:22:44;11.23;;;4.35;;
28304;SDS011;15569;42.652;23.040;2023-07-02T04:25:13;9.60;;;4.70;;
28304;SDS011;15569;42.652;23.040;2023-07-02T04:27:41;11.55;;;4.50;;
28304;SDS011;15569;42.652;23.040;2023-07-02T04:30:07;8.57;;;5.18;;
28304;SDS011;15569;42.652;23.040;2023-07-02T04:32:33;11.20;;;4.68;;
28304;SDS011;15569;42.652;23.040;2023-07-02T04:34:59;12.27;;;5.35;;
28304;SDS011;15569;42.652;23.040;2023-07-02T04:37:24;9.10;;;4.75;;
28304;SDS011;15569;42.652;23.040;2023-07-02T04:39:49;8.48;;;4.55;;
28304;SDS011;15569;42.652;23.040;2023-07-02T04:42:15;10.95;;;4.78;;
28304;SDS011;15569;42.652;23.040;2023-07-02T04:44:40;12.77;;;5.32;;
28304;SDS011;15569;42.652;23.040;2023-07-02T04:47:08;17.15;;;4.95;;
28304;SDS011;15569;42.652;23.040;2023-07-02T04:49:33;13.13;;;5.15;;
28304;SDS011;15569;42.652;23.040;2023-07-02T04:51:59;48.17;;;17.30;;
28304;SDS011;15569;42.652;23.040;2023-07-02T04:54:24;31.55;;;11.02;;
28304;SDS011;15569;42.652;23.040;2023-07-02T04:56:50;8.95;;;4.97;;
28304;SDS011;15569;42.652;23.040;2023-07-02T04:59:15;10.50;;;4.47;;
28304;SDS011;15569;42.652;23.040;2023-07-02T05:01:41;10.32;;;4.57;;
28304;SDS011;15569;42.652;23.040;2023-07-02T05:04:09;8.60;;;4.47;;
28304;SDS011;15569;42.652;23.040;2023-07-02T05:06:36;6.88;;;3.53;;
28304;SDS011;15569;42.652;23.040;2023-07-02T05:09:02;11.40;;;4.50;;
28304;SDS011;15569;42.652;23.040;2023-07-02T05:11:27;9.15;;;4.55;;
28304;SDS011;15569;42.652;23.040;2023-07-02T05:13:52;10.82;;;4.60;;
28304;SDS011;15569;42.652;23.040;2023-07-02T05:16:18;15.07;;;5.47;;
28304;SDS011;15569;42.652;23.040;2023-07-02T05:18:43;11.60;;;5.28;;
28304;SDS011;15569;42.652;23.040;2023-07-02T05:21:09;7.65;;;4.88;;
28304;SDS011;15569;42.652;23.040;2023-07-02T05:23:34;12.07;;;6.07;;
28304;SDS011;15569;42.652;23.040;2023-07-02T05:26:00;14.23;;;6.95;;
28304;SDS011;15569;42.652;23.040;2023-07-02T05:28:26;10.45;;;5.53;;
28304;SDS011;15569;42.652;23.040;2023-07-02T05:30:51;7.20;;;4.60;;
28304;SDS011;15569;42.652;23.040;2023-07-02T05:33:16;10.65;;;4.65;;
28304;SDS011;15569;42.652;23.040;2023-07-02T05:35:42;10.30;;;5.45;;
28304;SDS011;15569;42.652;23.040;2023-07-02T05:38:07;8.50;;;5.38;;
28304;SDS011;15569;42.652;23.040;2023-07-02T05:40:33;13.93;;;5.05;;
28304;SDS011;15569;42.652;23.040;2023-07-02T05:42:58;10.90;;;5.07;;
28304;SDS011;15569;42.652;23.040;2023-07-02T05:45:23;9.52;;;4.72;;
28304;SDS011;15569;42.652;23.040;2023-07-02T05:47:49;7.97;;;4.75;;
28304;SDS011;15569;42.652;23.040;2023-07-02T05:50:14;10.60;;;4.53;;
28304;SDS011;15569;42.652;23.040;2023-07-02T05:52:40;10.50;;;5.05;;
28304;SDS011;15569;42.652;23.040;2023-07-02T05:55:07;8.45;;;4.38;;
28304;SDS011;15569;42.652;23.040;2023-07-02T05:57:35;8.93;;;5.13;;
28304;SDS011;15569;42.652;23.040;2023-07-02T06:00:01;10.15;;;5.05;;
28304;SDS011;15569;42.652;23.040;2023-07-02T06:02:27;12.27;;;5.38;;
28304;SDS011;15569;42.652;23.040;2023-07-02T06:04:52;8.00;;;4.68;;
28304;SDS011;15569;42.652;23.040;2023-07-02T06:07:18;7.45;;;4.15;;
28304;SDS011;15569;42.652;23.040;2023-07-02T06:09:43;10.75;;;4.60;;
28304;SDS011;15569;42.652;23.040;2023-07-02T06:12:09;8.75;;;4.05;;
28304;SDS011;15569;42.652;23.040;2023-07-02T06:14:34;7.28;;;4.18;;
28304;SDS011;15569;42.652;23.040;2023-07-02T06:16:59;9.30;;;4.65;;
28304;SDS011;15569;42.652;23.040;2023-07-02T06:19:25;11.95;;;4.78;;
28304;SDS011;15569;42.652;23.040;2023-07-02T06:21:51;9.55;;;4.32;;
28304;SDS011;15569;42.652;23.040;2023-07-02T06:24:16;7.40;;;3.80;;
28304;SDS011;15569;42.652;23.040;2023-07-02T06:26:42;7.57;;;3.97;;
28304;SDS011;15569;42.652;23.040;2023-07-02T06:29:07;9.32;;;4.50;;
28304;SDS011;15569;42.652;23.040;2023-07-02T06:31:32;5.85;;;3.78;;
28304;SDS011;15569;42.652;23.040;2023-07-02T06:33:58;9.57;;;4.53;;
28304;SDS011;15569;42.652;23.040;2023-07-02T06:36:23;11.38;;;4.97;;
28304;SDS011;15569;42.652;23.040;2023-07-02T06:38:49;9.00;;;4.82;;
28304;SDS011;15569;42.652;23.040;2023-07-02T06:41:14;7.72;;;4.75;;
28304;SDS011;15569;42.652;23.040;2023-07-02T06:43:41;9.13;;;4.47;;
28304;SDS011;15569;42.652;23.040;2023-07-02T06:46:09;9.43;;;5.13;;
28304;SDS011;15569;42.652;23.040;2023-07-02T06:48:35;7.88;;;4.28;;
28304;SDS011;15569;42.652;23.040;2023-07-02T06:51:00;10.82;;;4.38;;
28304;SDS011;15569;42.652;23.040;2023-07-02T06:53:26;5.57;;;3.90;;
28304;SDS011;15569;42.652;23.040;2023-07-02T06:55:51;7.72;;;3.63;;
28304;SDS011;15569;42.652;23.040;2023-07-02T06:58:16;7.85;;;4.15;;
28304;SDS011;15569;42.652;23.040;2023-07-02T07:00:42;8.10;;;4.20;;
28304;SDS011;15569;42.652;23.040;2023-07-02T07:03:07;7.05;;;3.90;;
28304;SDS011;15569;42.652;23.040;2023-07-02T07:05:33;9.25;;;5.50;;
28304;SDS011;15569;42.652;23.040;2023-07-02T07:07:59;10.63;;;4.85;;
28304;SDS011;15569;42.652;23.040;2023-07-02T07:10:25;8.65;;;4.20;;
28304;SDS011;15569;42.652;23.040;2023-07-02T07:12:51;7.15;;;3.83;;
28304;SDS011;15569;42.652;23.040;2023-07-02T07:15:17;9.98;;;4.13;;
28304;SDS011;15569;42.652;23.040;2023-07-02T07:17:42;8.45;;;3.70;;
28304;SDS011;15569;42.652;23.040;2023-07-02T07:20:08;7.53;;;4.40;;
28304;SDS011;15569;42.652;23.040;2023-07-02T07:22:33;8.40;;;3.88;;
28304;SDS011;15569;42.652;23.040;2023-07-02T07:24:59;6.35;;;3.50;;
28304;SDS011;15569;42.652;23.040;2023-07-02T07:27:24;8.65;;;3.85;;
28304;SDS011;15569;42.652;23.040;2023-07-02T07:29:50;6.97;;;4.20;;
28304;SDS011;15569;42.652;23.040;2023-07-02T07:32:15;8.40;;;3.63;;
28304;SDS011;15569;42.652;23.040;2023-07-02T07:34:41;6.78;;;4.13;;
28304;SDS011;15569;42.652;23.040;2023-07-02T07:37:07;7.75;;;4.38;;
28304;SDS011;15569;42.652;23.040;2023-07-02T07:39:32;9.50;;;4.63;;
28304;SDS011;15569;42.652;23.040;2023-07-02T07:41:58;9.07;;;4.05;;
28304;SDS011;15569;42.652;23.040;2023-07-02T07:44:24;7.20;;;3.47;;
28304;SDS011;15569;42.652;23.040;2023-07-02T07:46:53;5.50;;;3.78;;
28304;SDS011;15569;42.652;23.040;2023-07-02T07:49:22;7.85;;;4.10;;
28304;SDS011;15569;42.652;23.040;2023-07-02T07:51:47;5.47;;;3.58;;
28304;SDS011;15569;42.652;23.040;2023-07-02T07:54:13;5.43;;;3.60;;
28304;SDS011;15569;42.652;23.040;2023-07-02T07:56:39;6.65;;;3.45;;
28304;SDS011;15569;42.652;23.040;2023-07-02T07:59:04;5.38;;;2.97;;
28304;SDS011;15569;42.652;23.040;2023-07-02T08:01:30;5.72;;;3.28;;
28304;SDS011;15569;42.652;23.040;2023-07-02T08:03:55;4.97;;;3.38;;
28304;SDS011;15569;42.652;23.040;2023-07-02T08:06:21;6.57;;;3.88;;
28304;SDS011;15569;42.652;23.040;2023-07-02T08:08:46;6.35;;;3.28;;
28304;SDS011;15569;42.652;23.040;2023-07-02T08:11:12;8.95;;;4.18;;
28304;SDS011;15569;42.652;23.040;2023-07-02T08:13:37;7.00;;;3.63;;
28304;SDS011;15569;42.652;23.040;2023-07-02T08:16:03;6.85;;;3.38;;
28304;SDS011;15569;42.652;23.040;2023-07-02T08:18:28;6.55;;;3.72;;
28304;SDS011;15569;42.652;23.040;2023-07-02T08:20:54;6.00;;;3.63;;
28304;SDS011;15569;42.652;23.040;2023-07-02T08:23:19;5.43;;;3.30;;
28304;SDS011;15569;42.652;23.040;2023-07-02T08:25:44;4.13;;;2.55;;
28304;SDS011;15569;42.652;23.040;2023-07-02T08:28:10;8.50;;;3.28;;
28304;SDS011;15569;42.652;23.040;2023-07-02T08:30:35;8.80;;;3.30;;
28304;SDS011;15569;42.652;23.040;2023-07-02T08:33:01;5.63;;;2.92;;
28304;SDS011;15569;42.652;23.040;2023-07-02T08:35:26;8.00;;;2.63;;
28304;SDS011;15569;42.652;23.040;2023-07-02T08:37:52;6.13;;;3.10;;
28304;SDS011;15569;42.652;23.040;2023-07-02T08:40:20;5.25;;;2.70;;
28304;SDS011;15569;42.652;23.040;2023-07-02T08:42:46;4.88;;;2.78;;
28304;SDS011;15569;42.652;23.040;2023-07-02T08:45:13;7.07;;;2.92;;
28304;SDS011;15569;42.652;23.040;2023-07-02T08:47:40;6.40;;;3.13;;
28304;SDS011;15569;42.652;23.040;2023-07-02T08:50:06;5.82;;;3.15;;
28304;SDS011;15569;42.652;23.040;2023-07-02T08:52:31;7.35;;;3.50;;
28304;SDS011;15569;42.652;23.040;2023-07-02T08:54:57;5.72;;;2.80;;
28304;SDS011;15569;42.652;23.040;2023-07-02T08:57:22;5.90;;;2.58;;
28304;SDS011;15569;42.652;23.040;2023-07-02T08:59:48;3.00;;;2.28;;
28304;SDS011;15569;42.652;23.040;2023-07-02T09:02:14;4.13;;;2.53;;
28304;SDS011;15569;42.652;23.040;2023-07-02T09:04:39;4.70;;;2.90;;
28304;SDS011;15569;42.652;23.040;2023-07-02T09:07:09;4.90;;;2.85;;
28304;SDS011;15569;42.652;23.040;2023-07-02T09:09:45;4.10;;;2.53;;
28304;SDS011;15569;42.652;23.040;2023-07-02T09:12:21;4.10;;;2.58;;
28304;SDS011;15569;42.652;23.040;2023-07-02T09:15:01;3.80;;;2.20;;
28304;SDS011;15569;42.652;23.040;2023-07-02T09:17:29;3.65;;;2.38;;
28304;SDS011;15569;42.652;23.040;2023-07-02T09:19:57;4.72;;;2.72;;
28304;SDS011;15569;42.652;23.040;2023-07-02T09:22:25;4.25;;;2.40;;
28304;SDS011;15569;42.652;23.040;2023-07-02T09:24:54;3.97;;;2.33;;
28304;SDS011;15569;42.652;23.040;2023-07-02T09:27:32;4.80;;;2.85;;
28304;SDS011;15569;42.652;23.040;2023-07-02T09:30:04;4.22;;;2.65;;
28304;SDS011;15569;42.652;23.040;2023-07-02T09:32:31;4.88;;;2.40;;
28304;SDS011;15569;42.652;23.040;2023-07-02T09:34:57;5.38;;;2.58;;
28304;SDS011;15569;42.652;23.040;2023-07-02T09:37:23;7.57;;;3.08;;
28304;SDS011;15569;42.652;23.040;2023-07-02T09:39:49;3.80;;;2.15;;
28304;SDS011;15569;42.652;23.040;2023-07-02T09:42:17;3.63;;;2.25;;
28304;SDS011;15569;42.652;23.040;2023-07-02T09:44:45;4.00;;;2.25;;
28304;SDS011;15569;42.652;23.040;2023-07-02T09:47:10;5.28;;;2.22;;
28304;SDS011;15569;42.652;23.040;2023-07-02T09:49:38;3.58;;;2.47;;
28304;SDS011;15569;42.652;23.040;2023-07-02T09:52:15;5.85;;;2.53;;
28304;SDS011;15569;42.652;23.040;2023-07-02T09:54:42;3.20;;;2.22;;
28304;SDS011;15569;42.652;23.040;2023-07-02T09:57:09;5.45;;;2.70;;
28304;SDS011;15569;42.652;23.040;2023-07-02T09:59:35;4.75;;;2.55;;
28304;SDS011;15569;42.652;23.040;2023-07-02T10:02:00;3.90;;;2.58;;
28304;SDS011;15569;42.652;23.040;2023-07-02T10:04:26;3.08;;;2.00;;
28304;SDS011;15569;42.652;23.040;2023-07-02T10:06:54;3.75;;;2.25;;
28304;SDS011;15569;42.652;23.040;2023-07-02T10:09:20;3.20;;;1.75;;
28304;SDS011;15569;42.652;23.040;2023-07-02T10:11:59;3.63;;;2.00;;
28304;SDS011;15569;42.652;23.040;2023-07-02T10:14:24;4.25;;;2.60;;
28304;SDS011;15569;42.652;23.040;2023-07-02T10:16:50;4.47;;;2.30;;
28304;SDS011;15569;42.652;23.040;2023-07-02T10:19:15;4.30;;;2.30;;
28304;SDS011;15569;42.652;23.040;2023-07-02T10:21:41;6.75;;;2.63;;
28304;SDS011;15569;42.652;23.040;2023-07-02T10:24:13;5.53;;;3.05;;
28304;SDS011;15569;42.652;23.040;2023-07-02T10:26:51;4.82;;;2.83;;
28304;SDS011;15569;42.652;23.040;2023-07-02T10:29:21;4.40;;;2.85;;
28304;SDS011;15569;42.652;23.040;2023-07-02T10:31:48;5.03;;;2.95;;
28304;SDS011;15569;42.652;23.040;2023-07-02T10:34:14;4.50;;;2.22;;
28304;SDS011;15569;42.652;23.040;2023-07-02T10:36:40;5.13;;;2.92;;
28304;SDS011;15569;42.652;23.040;2023-07-02T10:39:05;7.97;;;4.95;;
28304;SDS011;15569;42.652;23.040;2023-07-02T10:41:30;5.95;;;3.08;;
28304;SDS011;15569;42.652;23.040;2023-07-02T10:44:08;6.57;;;3.38;;
28304;SDS011;15569;42.652;23.040;2023-07-02T10:46:42;4.47;;;3.10;;
28304;SDS011;15569;42.652;23.040;2023-07-02T10:49:08;5.75;;;3.20;;
28304;SDS011;15569;42.652;23.040;2023-07-02T10:51:34;6.30;;;3.70;;
28304;SDS011;15569;42.652;23.040;2023-07-02T10:54:00;8.10;;;3.75;;
28304;SDS011;15569;42.652;23.040;2023-07-02T10:56:27;6.30;;;3.47;;
28304;SDS011;15569;42.652;23.040;2023-07-02T10:58:53;4.88;;;3.25;;
28304;SDS011;15569;42.652;23.040;2023-07-02T11:01:26;5.28;;;3.67;;
28304;SDS011;15569;42.652;23.040;2023-07-02T11:03:56;7.80;;;3.40;;
28304;SDS011;15569;42.652;23.040;2023-07-02T11:06:22;7.85;;;3.85;;
28304;SDS011;15569;42.652;23.040;2023-07-02T11:08:48;6.25;;;3.63;;
28304;SDS011;15569;42.652;23.040;2023-07-02T11:11:14;7.95;;;4.22;;
28304;SDS011;15569;42.652;23.040;2023-07-02T11:13:46;7.07;;;3.78;;
28304;SDS011;15569;42.652;23.040;2023-07-02T11:19:12;3.92;;;2.45;;
28304;SDS011;15569;42.652;23.040;2023-07-02T11:21:37;3.13;;;2.17;;
28304;SDS011;15569;42.652;23.040;2023-07-02T11:24:03;7.07;;;2.05;;
28304;SDS011;15569;42.652;23.040;2023-07-02T11:26:36;3.60;;;2.28;;
28304;SDS011;15569;42.652;23.040;2023-07-02T11:29:02;3.33;;;2.10;;
28304;SDS011;15569;42.652;23.040;2023-07-02T11:31:27;3.97;;;2.67;;
28304;SDS011;15569;42.652;23.040;2023-07-02T11:33:53;4.32;;;2.60;;
28304;SDS011;15569;42.652;23.040;2023-07-02T11:36:20;3.28;;;2.38;;
28304;SDS011;15569;42.652;23.040;2023-07-02T11:38:48;5.00;;;2.72;;
28304;SDS011;15569;42.652;23.040;2023-07-02T11:41:14;4.80;;;3.30;;
28304;SDS011;15569;42.652;23.040;2023-07-02T11:43:40;5.38;;;3.33;;
28304;SDS011;15569;42.652;23.040;2023-07-02T11:46:05;5.90;;;3.15;;
28304;SDS011;15569;42.652;23.040;2023-07-02T11:48:30;4.50;;;2.88;;
28304;SDS011;15569;42.652;23.040;2023-07-02T11:50:56;4.65;;;3.17;;
28304;SDS011;15569;42.652;23.040;2023-07-02T11:53:21;11.48;;;4.20;;
28304;SDS011;15569;42.652;23.040;2023-07-02T11:55:47;7.38;;;3.08;;
28304;SDS011;15569;42.652;23.040;2023-07-02T11:58:12;6.72;;;2.80;;
28304;SDS011;15569;42.652;23.040;2023-07-02T12:00:37;5.30;;;3.33;;
28304;SDS011;15569;42.652;23.040;2023-07-02T12:03:03;4.97;;;3.17;;
28304;SDS011;15569;42.652;23.040;2023-07-02T12:05:28;5.00;;;3.13;;
28304;SDS011;15569;42.652;23.040;2023-07-02T12:07:54;6.50;;;3.25;;
28304;SDS011;15569;42.652;23.040;2023-07-02T12:10:19;6.05;;;3.58;;
28304;SDS011;15569;42.652;23.040;2023-07-02T12:12:45;7.47;;;3.75;;
28304;SDS011;15569;42.652;23.040;2023-07-02T12:15:10;5.65;;;3.80;;
28304;SDS011;15569;42.652;23.040;2023-07-02T12:17:35;9.27;;;3.67;;
28304;SDS011;15569;42.652;23.040;2023-07-02T12:20:01;5.00;;;3.33;;
28304;SDS011;15569;42.652;23.040;2023-07-02T12:22:26;5.40;;;3.70;;
28304;SDS011;15569;42.652;23.040;2023-07-02T12:24:51;6.15;;;3.95;;
28304;SDS011;15569;42.652;23.040;2023-07-02T12:27:20;5.03;;;3.73;;
28304;SDS011;15569;42.652;23.040;2023-07-02T12:29:46;9.30;;;4.72;;
28304;SDS011;15569;42.652;23.040;2023-07-02T12:32:13;7.85;;;4.32;;
28304;SDS011;15569;42.652;23.040;2023-07-02T12:34:38;7.80;;;3.53;;
28304;SDS011;15569;42.652;23.040;2023-07-02T12:37:04;7.18;;;3.78;;
28304;SDS011;15569;42.652;23.040;2023-07-02T12:39:30;6.32;;;3.53;;
28304;SDS011;15569;42.652;23.040;2023-07-02T12:41:55;5.57;;;3.58;;
28304;SDS011;15569;42.652;23.040;2023-07-02T12:44:20;11.45;;;4.55;;
28304;SDS011;15569;42.652;23.040;2023-07-02T12:46:46;9.95;;;4.13;;
28304;SDS011;15569;42.652;23.040;2023-07-02T12:49:11;6.95;;;4.07;;
28304;SDS011;15569;42.652;23.040;2023-07-02T12:51:38;5.05;;;3.65;;
28304;SDS011;15569;42.652;23.040;2023-07-02T12:54:03;7.75;;;4.22;;
28304;SDS011;15569;42.652;23.040;2023-07-02T12:56:29;6.43;;;3.88;;
28304;SDS011;15569;42.652;23.040;2023-07-02T12:58:54;6.45;;;4.18;;
28304;SDS011;15569;42.652;23.040;2023-07-02T13:01:19;8.27;;;4.25;;
28304;SDS011;15569;42.652;23.040;2023-07-02T13:03:48;7.60;;;4.45;;
28304;SDS011;15569;42.652;23.040;2023-07-02T13:06:13;11.30;;;4.93;;
28304;SDS011;15569;42.652;23.040;2023-07-02T13:08:39;8.13;;;4.57;;
28304;SDS011;15569;42.652;23.040;2023-07-02T13:11:04;11.05;;;4.20;;
28304;SDS011;15569;42.652;23.040;2023-07-02T13:13:30;7.88;;;4.55;;
28304;SDS011;15569;42.652;23.040;2023-07-02T13:15:55;10.60;;;4.90;;
28304;SDS011;15569;42.652;23.040;2023-07-02T13:18:21;15.40;;;4.63;;
28304;SDS011;15569;42.652;23.040;2023-07-02T13:20:46;6.72;;;4.00;;
28304;SDS011;15569;42.652;23.040;2023-07-02T13:23:12;6.85;;;3.08;;
28304;SDS011;15569;42.652;23.040;2023-07-02T13:25:37;7.00;;;3.58;;
28304;SDS011;15569;42.652;23.040;2023-07-02T13:28:03;12.05;;;4.28;;
28304;SDS011;15569;42.652;23.040;2023-07-02T13:30:28;5.88;;;3.28;;
28304;SDS011;15569;42.652;23.040;2023-07-02T13:32:55;9.68;;;4.35;;
28304;SDS011;15569;42.652;23.040;2023-07-02T13:35:21;7.03;;;3.88;;
28304;SDS011;15569;42.652;23.040;2023-07-02T13:37:47;9.65;;;4.30;;
28304;SDS011;15569;42.652;23.040;2023-07-02T13:40:13;15.40;;;7.85;;
28304;SDS011;15569;42.652;23.040;2023-07-02T13:42:40;7.63;;;4.10;;
28304;SDS011;15569;42.652;23.040;2023-07-02T13:45:07;9.70;;;5.35;;
28304;SDS011;15569;42.652;23.040;2023-07-02T13:47:34;11.38;;;4.90;;
28304;SDS011;15569;42.652;23.040;2023-07-02T13:50:00;12.90;;;6.25;;
28304;SDS011;15569;42.652;23.040;2023-07-02T13:52:26;7.78;;;4.25;;
28304;SDS011;15569;42.652;23.040;2023-07-02T13:54:51;8.70;;;3.65;;
28304;SDS011;15569;42.652;23.040;2023-07-02T13:57:17;8.85;;;4.45;;
28304;SDS011;15569;42.652;23.040;2023-07-02T13:59:42;12.20;;;5.63;;
28304;SDS011;15569;42.652;23.040;2023-07-02T14:02:07;6.82;;;4.38;;
28304;SDS011;15569;42.652;23.040;2023-07-02T14:04:33;8.80;;;4.45;;
28304;SDS011;15569;42.652;23.040;2023-07-02T14:06:58;12.02;;;4.55;;
28304;SDS011;15569;42.652;23.040;2023-07-02T14:09:24;12.85;;;5.07;;
28304;SDS011;15569;42.652;23.040;2023-07-02T14:11:49;11.88;;;5.70;;
28304;SDS011;15569;42.652;23.040;2023-07-02T14:14:15;17.17;;;5.45;;
28304;SDS011;15569;42.652;23.040;2023-07-02T14:16:40;15.40;;;8.40;;
28304;SDS011;15569;42.652;23.040;2023-07-02T14:19:05;12.15;;;4.40;;
28304;SDS011;15569;42.652;23.040;2023-07-02T14:21:31;14.88;;;6.40;;
28304;SDS011;15569;42.652;23.040;2023-07-02T14:23:57;15.02;;;5.40;;
28304;SDS011;15569;42.652;23.040;2023-07-02T14:26:23;12.38;;;5.05;;
28304;SDS011;15569;42.652;23.040;2023-07-02T14:28:48;9.48;;;4.50;;
28304;SDS011;15569;42.652;23.040;2023-07-02T14:31:14;10.07;;;4.72;;
28304;SDS011;15569;42.652;23.040;2023-07-02T14:33:39;7.50;;;4.50;;